sensor_id;sensor_type;location;lat;lon;timestamp;P1;durP1;ratioP1;P2;durP2;ratioP2
7334;SDS011;3708;42.632;23.378;2023-11-21T00:00:15;6.53;;;3.40;;
7334;SDS011;3708;42.632;23.378;2023-11-21T00:02:43;7.43;;;3.60;;
7334;SDS011;3708;42.632;23.378;2023-11-21T00:05:11;3.93;;;3.00;;
7334;SDS011;3708;42.632;23.378;2023-11-21T00:07:41;4.83;;;2.97;;
7334;SDS011;3708;42.632;23.378;2023-11-21T00:10:09;4.20;;;2.97;;
7334;SDS011;3708;42.632;23.378;2023-11-21T00:12:39;4.23;;;2.97;;
7334;SDS011;3708;42.632;23.378;2023-11-21T00:15:07;6.73;;;3.23;;
7334;SDS011;3708;42.632;23.378;2023-11-21T00:17:36;3.43;;;2.80;;
7334;SDS011;3708;42.632;23.378;2023-11-21T00:20:04;3.77;;;2.73;;
7334;SDS011;3708;42.632;23.378;2023-11-21T00:22:32;4.07;;;2.80;;
7334;SDS011;3708;42.632;23.378;2023-11-21T00:25:00;4.60;;;3.10;;
7334;SDS011;3708;42.632;23.378;2023-11-21T00:27:28;4.37;;;3.60;;
7334;SDS011;3708;42.632;23.378;2023-11-21T00:29:56;4.63;;;2.53;;
7334;SDS011;3708;42.632;23.378;2023-11-21T00:32:23;4.77;;;2.70;;
7334;SDS011;3708;42.632;23.378;2023-11-21T00:34:49;6.37;;;3.53;;
7334;SDS011;3708;42.632;23.378;2023-11-21T00:37:16;5.20;;;3.80;;
7334;SDS011;3708;42.632;23.378;2023-11-21T00:39:43;6.83;;;3.70;;
7334;SDS011;3708;42.632;23.378;2023-11-21T00:42:11;6.80;;;3.60;;
7334;SDS011;3708;42.632;23.378;2023-11-21T00:44:38;10.83;;;4.40;;
7334;SDS011;3708;42.632;23.378;2023-11-21T00:47:05;5.37;;;4.07;;
7334;SDS011;3708;42.632;23.378;2023-11-21T00:49:33;5.13;;;3.63;;
7334;SDS011;3708;42.632;23.378;2023-11-21T00:52:00;7.23;;;4.20;;
7334;SDS011;3708;42.632;23.378;2023-11-21T00:54:28;4.97;;;3.50;;
7334;SDS011;3708;42.632;23.378;2023-11-21T00:56:54;6.57;;;4.27;;
7334;SDS011;3708;42.632;23.378;2023-11-21T00:59:23;6.83;;;4.70;;
7334;SDS011;3708;42.632;23.378;2023-11-21T01:01:50;11.63;;;7.77;;
7334;SDS011;3708;42.632;23.378;2023-11-21T01:04:16;9.47;;;5.80;;
7334;SDS011;3708;42.632;23.378;2023-11-21T01:06:43;6.37;;;4.30;;
7334;SDS011;3708;42.632;23.378;2023-11-21T01:09:10;6.33;;;3.93;;
7334;SDS011;3708;42.632;23.378;2023-11-21T01:11:37;7.73;;;4.30;;
7334;SDS011;3708;42.632;23.378;2023-11-21T01:14:04;7.30;;;4.50;;
7334;SDS011;3708;42.632;23.378;2023-11-21T01:16:33;6.67;;;4.37;;
7334;SDS011;3708;42.632;23.378;2023-11-21T01:19:00;7.50;;;4.37;;
7334;SDS011;3708;42.632;23.378;2023-11-21T01:21:26;5.23;;;3.73;;
7334;SDS011;3708;42.632;23.378;2023-11-21T01:23:54;5.90;;;3.67;;
7334;SDS011;3708;42.632;23.378;2023-11-21T01:26:21;4.87;;;3.30;;
7334;SDS011;3708;42.632;23.378;2023-11-21T01:28:48;5.50;;;3.10;;
7334;SDS011;3708;42.632;23.378;2023-11-21T01:31:15;3.57;;;2.87;;
7334;SDS011;3708;42.632;23.378;2023-11-21T01:33:43;3.40;;;2.43;;
7334;SDS011;3708;42.632;23.378;2023-11-21T01:36:10;5.73;;;2.83;;
7334;SDS011;3708;42.632;23.378;2023-11-21T01:38:37;3.83;;;3.17;;
7334;SDS011;3708;42.632;23.378;2023-11-21T01:41:04;4.97;;;3.00;;
7334;SDS011;3708;42.632;23.378;2023-11-21T01:43:31;3.17;;;2.70;;
7334;SDS011;3708;42.632;23.378;2023-11-21T01:45:59;5.93;;;2.90;;
7334;SDS011;3708;42.632;23.378;2023-11-21T01:48:26;6.90;;;3.27;;
7334;SDS011;3708;42.632;23.378;2023-11-21T01:50:55;3.80;;;2.80;;
7334;SDS011;3708;42.632;23.378;2023-11-21T01:53:23;4.43;;;2.90;;
7334;SDS011;3708;42.632;23.378;2023-11-21T01:55:52;5.13;;;2.70;;
7334;SDS011;3708;42.632;23.378;2023-11-21T01:58:19;3.93;;;2.83;;
7334;SDS011;3708;42.632;23.378;2023-11-21T02:00:47;5.13;;;2.90;;
7334;SDS011;3708;42.632;23.378;2023-11-21T02:03:16;4.80;;;2.93;;
7334;SDS011;3708;42.632;23.378;2023-11-21T02:05:43;6.97;;;3.20;;
7334;SDS011;3708;42.632;23.378;2023-11-21T02:08:11;5.60;;;3.90;;
7334;SDS011;3708;42.632;23.378;2023-11-21T02:10:38;6.33;;;4.40;;
7334;SDS011;3708;42.632;23.378;2023-11-21T02:13:06;5.57;;;4.23;;
7334;SDS011;3708;42.632;23.378;2023-11-21T02:15:32;6.90;;;4.60;;
7334;SDS011;3708;42.632;23.378;2023-11-21T02:17:59;7.50;;;4.83;;
7334;SDS011;3708;42.632;23.378;2023-11-21T02:20:28;7.40;;;4.57;;
7334;SDS011;3708;42.632;23.378;2023-11-21T02:22:57;8.23;;;4.73;;
7334;SDS011;3708;42.632;23.378;2023-11-21T02:25:24;8.83;;;4.20;;
7334;SDS011;3708;42.632;23.378;2023-11-21T02:27:52;7.27;;;4.23;;
7334;SDS011;3708;42.632;23.378;2023-11-21T02:30:20;6.47;;;4.00;;
7334;SDS011;3708;42.632;23.378;2023-11-21T02:32:47;7.10;;;4.07;;
7334;SDS011;3708;42.632;23.378;2023-11-21T02:35:14;4.90;;;3.77;;
7334;SDS011;3708;42.632;23.378;2023-11-21T02:37:42;8.13;;;4.43;;
7334;SDS011;3708;42.632;23.378;2023-11-21T02:40:10;6.57;;;4.27;;
7334;SDS011;3708;42.632;23.378;2023-11-21T02:42:39;7.33;;;4.83;;
7334;SDS011;3708;42.632;23.378;2023-11-21T02:45:06;7.93;;;5.20;;
7334;SDS011;3708;42.632;23.378;2023-11-21T02:47:34;6.57;;;4.23;;
7334;SDS011;3708;42.632;23.378;2023-11-21T02:50:01;8.07;;;5.13;;
7334;SDS011;3708;42.632;23.378;2023-11-21T02:52:28;7.97;;;4.90;;
7334;SDS011;3708;42.632;23.378;2023-11-21T02:54:55;10.33;;;5.90;;
7334;SDS011;3708;42.632;23.378;2023-11-21T02:57:23;8.53;;;4.83;;
7334;SDS011;3708;42.632;23.378;2023-11-21T02:59:50;6.40;;;4.73;;
7334;SDS011;3708;42.632;23.378;2023-11-21T03:02:17;7.80;;;4.90;;
7334;SDS011;3708;42.632;23.378;2023-11-21T03:04:43;7.03;;;4.80;;
7334;SDS011;3708;42.632;23.378;2023-11-21T03:07:10;7.53;;;5.00;;
7334;SDS011;3708;42.632;23.378;2023-11-21T03:09:37;9.47;;;5.00;;
7334;SDS011;3708;42.632;23.378;2023-11-21T03:12:04;10.63;;;4.70;;
7334;SDS011;3708;42.632;23.378;2023-11-21T03:14:33;8.40;;;5.00;;
7334;SDS011;3708;42.632;23.378;2023-11-21T03:17:00;7.30;;;4.70;;
7334;SDS011;3708;42.632;23.378;2023-11-21T03:19:27;6.20;;;4.20;;
7334;SDS011;3708;42.632;23.378;2023-11-21T03:21:53;6.90;;;4.57;;
7334;SDS011;3708;42.632;23.378;2023-11-21T03:24:20;4.53;;;3.60;;
7334;SDS011;3708;42.632;23.378;2023-11-21T03:26:47;6.20;;;3.37;;
7334;SDS011;3708;42.632;23.378;2023-11-21T03:29:15;4.20;;;3.20;;
7334;SDS011;3708;42.632;23.378;2023-11-21T03:31:43;4.33;;;2.80;;
7334;SDS011;3708;42.632;23.378;2023-11-21T03:34:14;5.13;;;3.03;;
7334;SDS011;3708;42.632;23.378;2023-11-21T03:36:43;6.07;;;3.73;;
7334;SDS011;3708;42.632;23.378;2023-11-21T03:39:11;6.67;;;3.83;;
7334;SDS011;3708;42.632;23.378;2023-11-21T03:41:38;6.03;;;4.03;;
7334;SDS011;3708;42.632;23.378;2023-11-21T03:44:05;4.97;;;3.20;;
7334;SDS011;3708;42.632;23.378;2023-11-21T03:46:32;4.90;;;3.20;;
7334;SDS011;3708;42.632;23.378;2023-11-21T03:49:00;4.53;;;2.90;;
7334;SDS011;3708;42.632;23.378;2023-11-21T03:51:27;10.30;;;5.40;;
7334;SDS011;3708;42.632;23.378;2023-11-21T03:53:54;9.30;;;6.27;;
7334;SDS011;3708;42.632;23.378;2023-11-21T03:56:21;15.83;;;9.70;;
7334;SDS011;3708;42.632;23.378;2023-11-21T03:58:48;14.63;;;10.40;;
7334;SDS011;3708;42.632;23.378;2023-11-21T04:01:19;16.93;;;9.93;;
7334;SDS011;3708;42.632;23.378;2023-11-21T04:03:47;15.50;;;9.83;;
7334;SDS011;3708;42.632;23.378;2023-11-21T04:06:16;16.70;;;10.73;;
7334;SDS011;3708;42.632;23.378;2023-11-21T04:08:43;13.73;;;9.20;;
7334;SDS011;3708;42.632;23.378;2023-11-21T04:11:10;18.60;;;10.77;;
7334;SDS011;3708;42.632;23.378;2023-11-21T04:13:38;15.40;;;9.97;;
7334;SDS011;3708;42.632;23.378;2023-11-21T04:16:05;15.30;;;8.97;;
7334;SDS011;3708;42.632;23.378;2023-11-21T04:18:33;19.77;;;9.50;;
7334;SDS011;3708;42.632;23.378;2023-11-21T04:21:00;11.67;;;7.97;;
7334;SDS011;3708;42.632;23.378;2023-11-21T04:23:29;17.43;;;8.27;;
7334;SDS011;3708;42.632;23.378;2023-11-21T04:25:56;11.77;;;7.73;;
7334;SDS011;3708;42.632;23.378;2023-11-21T04:28:24;9.57;;;6.50;;
7334;SDS011;3708;42.632;23.378;2023-11-21T04:30:51;8.53;;;5.53;;
7334;SDS011;3708;42.632;23.378;2023-11-21T04:33:18;10.13;;;5.97;;
7334;SDS011;3708;42.632;23.378;2023-11-21T04:35:45;8.40;;;5.63;;
7334;SDS011;3708;42.632;23.378;2023-11-21T04:38:12;14.77;;;4.80;;
7334;SDS011;3708;42.632;23.378;2023-11-21T04:40:40;8.93;;;4.43;;
7334;SDS011;3708;42.632;23.378;2023-11-21T04:43:06;5.03;;;4.07;;
7334;SDS011;3708;42.632;23.378;2023-11-21T04:45:33;8.47;;;5.73;;
7334;SDS011;3708;42.632;23.378;2023-11-21T04:48:00;7.43;;;4.47;;
7334;SDS011;3708;42.632;23.378;2023-11-21T04:50:26;8.40;;;5.00;;
7334;SDS011;3708;42.632;23.378;2023-11-21T04:52:53;11.53;;;5.73;;
7334;SDS011;3708;42.632;23.378;2023-11-21T04:55:20;10.43;;;4.87;;
7334;SDS011;3708;42.632;23.378;2023-11-21T04:57:48;6.40;;;4.77;;
7334;SDS011;3708;42.632;23.378;2023-11-21T05:00:15;9.73;;;5.53;;
7334;SDS011;3708;42.632;23.378;2023-11-21T05:02:43;8.07;;;5.50;;
7334;SDS011;3708;42.632;23.378;2023-11-21T05:05:12;10.33;;;4.63;;
7334;SDS011;3708;42.632;23.378;2023-11-21T05:07:39;6.73;;;4.53;;
7334;SDS011;3708;42.632;23.378;2023-11-21T05:10:08;5.97;;;4.50;;
7334;SDS011;3708;42.632;23.378;2023-11-21T05:12:37;5.50;;;4.00;;
7334;SDS011;3708;42.632;23.378;2023-11-21T05:15:06;4.50;;;3.57;;
7334;SDS011;3708;42.632;23.378;2023-11-21T05:17:35;6.23;;;3.93;;
7334;SDS011;3708;42.632;23.378;2023-11-21T05:20:02;4.77;;;3.83;;
7334;SDS011;3708;42.632;23.378;2023-11-21T05:22:32;5.63;;;4.00;;
7334;SDS011;3708;42.632;23.378;2023-11-21T05:24:58;12.87;;;3.90;;
7334;SDS011;3708;42.632;23.378;2023-11-21T05:27:25;6.37;;;3.40;;
7334;SDS011;3708;42.632;23.378;2023-11-21T05:29:52;7.43;;;3.83;;
7334;SDS011;3708;42.632;23.378;2023-11-21T05:32:20;6.60;;;3.40;;
7334;SDS011;3708;42.632;23.378;2023-11-21T05:34:48;5.23;;;3.40;;
7334;SDS011;3708;42.632;23.378;2023-11-21T05:37:14;4.60;;;3.10;;
7334;SDS011;3708;42.632;23.378;2023-11-21T05:39:42;4.33;;;3.33;;
7334;SDS011;3708;42.632;23.378;2023-11-21T05:42:09;5.37;;;3.80;;
7334;SDS011;3708;42.632;23.378;2023-11-21T05:44:36;6.00;;;3.97;;
7334;SDS011;3708;42.632;23.378;2023-11-21T05:47:08;8.57;;;3.17;;
7334;SDS011;3708;42.632;23.378;2023-11-21T05:49:36;7.47;;;3.77;;
7334;SDS011;3708;42.632;23.378;2023-11-21T05:52:03;6.87;;;4.20;;
7334;SDS011;3708;42.632;23.378;2023-11-21T05:54:31;5.27;;;3.90;;
7334;SDS011;3708;42.632;23.378;2023-11-21T05:56:59;5.50;;;3.87;;
7334;SDS011;3708;42.632;23.378;2023-11-21T05:59:26;6.47;;;3.67;;
7334;SDS011;3708;42.632;23.378;2023-11-21T06:01:52;5.57;;;3.60;;
7334;SDS011;3708;42.632;23.378;2023-11-21T06:04:20;4.73;;;3.10;;
7334;SDS011;3708;42.632;23.378;2023-11-21T06:06:51;8.30;;;4.07;;
7334;SDS011;3708;42.632;23.378;2023-11-21T06:09:19;5.80;;;4.00;;
7334;SDS011;3708;42.632;23.378;2023-11-21T06:11:46;7.10;;;3.83;;
7334;SDS011;3708;42.632;23.378;2023-11-21T06:14:12;15.00;;;4.57;;
7334;SDS011;3708;42.632;23.378;2023-11-21T06:16:43;4.90;;;3.50;;
7334;SDS011;3708;42.632;23.378;2023-11-21T06:19:10;10.83;;;4.87;;
7334;SDS011;3708;42.632;23.378;2023-11-21T06:21:37;5.40;;;3.77;;
7334;SDS011;3708;42.632;23.378;2023-11-21T06:24:06;7.17;;;3.70;;
7334;SDS011;3708;42.632;23.378;2023-11-21T06:26:33;10.87;;;5.13;;
7334;SDS011;3708;42.632;23.378;2023-11-21T06:29:00;13.93;;;4.57;;
7334;SDS011;3708;42.632;23.378;2023-11-21T06:31:28;14.43;;;5.43;;
7334;SDS011;3708;42.632;23.378;2023-11-21T06:33:58;12.47;;;7.23;;
7334;SDS011;3708;42.632;23.378;2023-11-21T06:36:25;11.77;;;7.20;;
7334;SDS011;3708;42.632;23.378;2023-11-21T06:38:52;13.93;;;8.97;;
7334;SDS011;3708;42.632;23.378;2023-11-21T06:41:21;16.37;;;8.07;;
7334;SDS011;3708;42.632;23.378;2023-11-21T06:43:48;16.00;;;9.20;;
7334;SDS011;3708;42.632;23.378;2023-11-21T06:46:15;15.93;;;9.97;;
7334;SDS011;3708;42.632;23.378;2023-11-21T06:48:42;20.30;;;11.43;;
7334;SDS011;3708;42.632;23.378;2023-11-21T06:51:10;22.30;;;14.37;;
7334;SDS011;3708;42.632;23.378;2023-11-21T06:53:38;27.87;;;14.97;;
7334;SDS011;3708;42.632;23.378;2023-11-21T06:56:05;20.43;;;13.73;;
7334;SDS011;3708;42.632;23.378;2023-11-21T06:58:43;19.70;;;13.63;;
7334;SDS011;3708;42.632;23.378;2023-11-21T07:01:11;20.30;;;13.30;;
7334;SDS011;3708;42.632;23.378;2023-11-21T07:03:38;27.20;;;13.47;;
7334;SDS011;3708;42.632;23.378;2023-11-21T07:06:06;19.03;;;12.30;;
7334;SDS011;3708;42.632;23.378;2023-11-21T07:08:33;21.90;;;11.97;;
7334;SDS011;3708;42.632;23.378;2023-11-21T07:11:00;22.80;;;12.23;;
7334;SDS011;3708;42.632;23.378;2023-11-21T07:13:28;21.70;;;12.03;;
7334;SDS011;3708;42.632;23.378;2023-11-21T07:15:56;15.87;;;11.30;;
7334;SDS011;3708;42.632;23.378;2023-11-21T07:18:23;24.90;;;11.13;;
7334;SDS011;3708;42.632;23.378;2023-11-21T07:20:50;19.20;;;11.57;;
7334;SDS011;3708;42.632;23.378;2023-11-21T07:23:18;17.07;;;11.47;;
7334;SDS011;3708;42.632;23.378;2023-11-21T07:25:47;22.40;;;12.35;;
7334;SDS011;3708;42.632;23.378;2023-11-21T07:28:14;25.67;;;10.63;;
7334;SDS011;3708;42.632;23.378;2023-11-21T07:30:41;17.33;;;10.37;;
7334;SDS011;3708;42.632;23.378;2023-11-21T07:33:10;18.60;;;10.03;;
7334;SDS011;3708;42.632;23.378;2023-11-21T07:35:37;19.23;;;9.57;;
7334;SDS011;3708;42.632;23.378;2023-11-21T07:38:04;16.90;;;10.13;;
7334;SDS011;3708;42.632;23.378;2023-11-21T07:40:31;22.87;;;9.70;;
7334;SDS011;3708;42.632;23.378;2023-11-21T07:42:58;20.00;;;10.47;;
7334;SDS011;3708;42.632;23.378;2023-11-21T07:45:25;15.40;;;9.97;;
7334;SDS011;3708;42.632;23.378;2023-11-21T07:47:52;17.00;;;10.40;;
7334;SDS011;3708;42.632;23.378;2023-11-21T07:50:21;13.03;;;9.13;;
7334;SDS011;3708;42.632;23.378;2023-11-21T07:52:48;14.13;;;9.33;;
7334;SDS011;3708;42.632;23.378;2023-11-21T07:55:15;14.50;;;9.30;;
7334;SDS011;3708;42.632;23.378;2023-11-21T07:57:42;16.23;;;9.83;;
7334;SDS011;3708;42.632;23.378;2023-11-21T08:00:09;18.23;;;10.47;;
7334;SDS011;3708;42.632;23.378;2023-11-21T08:02:37;17.97;;;8.97;;
7334;SDS011;3708;42.632;23.378;2023-11-21T08:05:05;13.07;;;8.03;;
7334;SDS011;3708;42.632;23.378;2023-11-21T08:07:34;18.73;;;8.43;;
7334;SDS011;3708;42.632;23.378;2023-11-21T08:10:01;18.53;;;9.93;;
7334;SDS011;3708;42.632;23.378;2023-11-21T08:12:30;14.20;;;9.60;;
7334;SDS011;3708;42.632;23.378;2023-11-21T08:14:57;18.63;;;9.20;;
7334;SDS011;3708;42.632;23.378;2023-11-21T08:17:23;15.93;;;8.73;;
7334;SDS011;3708;42.632;23.378;2023-11-21T08:19:50;14.23;;;9.40;;
7334;SDS011;3708;42.632;23.378;2023-11-21T08:22:17;13.47;;;8.77;;
7334;SDS011;3708;42.632;23.378;2023-11-21T08:24:46;15.23;;;8.67;;
7334;SDS011;3708;42.632;23.378;2023-11-21T08:27:12;16.47;;;9.00;;
7334;SDS011;3708;42.632;23.378;2023-11-21T08:29:41;13.17;;;9.70;;
7334;SDS011;3708;42.632;23.378;2023-11-21T08:32:08;14.70;;;9.03;;
7334;SDS011;3708;42.632;23.378;2023-11-21T08:34:35;15.63;;;9.70;;
7334;SDS011;3708;42.632;23.378;2023-11-21T08:37:02;16.60;;;9.40;;
7334;SDS011;3708;42.632;23.378;2023-11-21T08:39:29;17.63;;;9.43;;
7334;SDS011;3708;42.632;23.378;2023-11-21T08:41:57;12.47;;;8.40;;
7334;SDS011;3708;42.632;23.378;2023-11-21T08:44:24;13.53;;;9.10;;
7334;SDS011;3708;42.632;23.378;2023-11-21T08:46:52;15.60;;;10.00;;
7334;SDS011;3708;42.632;23.378;2023-11-21T08:49:19;19.00;;;9.47;;
7334;SDS011;3708;42.632;23.378;2023-11-21T08:51:45;17.97;;;9.83;;
7334;SDS011;3708;42.632;23.378;2023-11-21T08:54:12;14.80;;;9.07;;
7334;SDS011;3708;42.632;23.378;2023-11-21T08:56:40;18.97;;;9.20;;
7334;SDS011;3708;42.632;23.378;2023-11-21T08:59:10;16.37;;;11.13;;
7334;SDS011;3708;42.632;23.378;2023-11-21T09:01:40;14.20;;;8.53;;
7334;SDS011;3708;42.632;23.378;2023-11-21T09:04:07;13.63;;;9.30;;
7334;SDS011;3708;42.632;23.378;2023-11-21T09:06:33;12.67;;;8.07;;
7334;SDS011;3708;42.632;23.378;2023-11-21T09:09:00;14.87;;;9.00;;
7334;SDS011;3708;42.632;23.378;2023-11-21T09:11:30;18.87;;;10.13;;
7334;SDS011;3708;42.632;23.378;2023-11-21T09:13:58;14.57;;;9.23;;
7334;SDS011;3708;42.632;23.378;2023-11-21T09:16:27;22.27;;;11.90;;
7334;SDS011;3708;42.632;23.378;2023-11-21T09:18:53;26.70;;;16.70;;
7334;SDS011;3708;42.632;23.378;2023-11-21T09:21:20;29.17;;;15.37;;
7334;SDS011;3708;42.632;23.378;2023-11-21T09:23:48;32.67;;;15.33;;
7334;SDS011;3708;42.632;23.378;2023-11-21T09:26:15;27.47;;;17.20;;
7334;SDS011;3708;42.632;23.378;2023-11-21T09:28:43;30.40;;;14.20;;
7334;SDS011;3708;42.632;23.378;2023-11-21T09:31:12;23.70;;;14.60;;
7334;SDS011;3708;42.632;23.378;2023-11-21T09:33:43;28.73;;;15.77;;
7334;SDS011;3708;42.632;23.378;2023-11-21T09:36:13;28.07;;;14.83;;
7334;SDS011;3708;42.632;23.378;2023-11-21T09:38:40;23.17;;;13.83;;
7334;SDS011;3708;42.632;23.378;2023-11-21T09:41:09;19.77;;;13.70;;
7334;SDS011;3708;42.632;23.378;2023-11-21T09:43:43;23.03;;;13.60;;
7334;SDS011;3708;42.632;23.378;2023-11-21T09:46:12;30.77;;;14.40;;
7334;SDS011;3708;42.632;23.378;2023-11-21T09:48:47;21.00;;;12.87;;
7334;SDS011;3708;42.632;23.378;2023-11-21T09:51:18;21.77;;;12.60;;
7334;SDS011;3708;42.632;23.378;2023-11-21T09:53:47;23.53;;;14.23;;
7334;SDS011;3708;42.632;23.378;2023-11-21T09:56:17;21.70;;;12.17;;
7334;SDS011;3708;42.632;23.378;2023-11-21T09:58:50;20.33;;;11.27;;
7334;SDS011;3708;42.632;23.378;2023-11-21T10:01:18;16.53;;;10.90;;
7334;SDS011;3708;42.632;23.378;2023-11-21T10:03:48;17.93;;;11.60;;
7334;SDS011;3708;42.632;23.378;2023-11-21T10:06:15;21.83;;;10.27;;
7334;SDS011;3708;42.632;23.378;2023-11-21T10:08:44;12.83;;;9.23;;
7334;SDS011;3708;42.632;23.378;2023-11-21T10:11:13;16.13;;;9.40;;
7334;SDS011;3708;42.632;23.378;2023-11-21T10:13:41;14.07;;;8.73;;
7334;SDS011;3708;42.632;23.378;2023-11-21T10:16:11;12.03;;;8.03;;
7334;SDS011;3708;42.632;23.378;2023-11-21T10:18:42;12.37;;;8.10;;
7334;SDS011;3708;42.632;23.378;2023-11-21T10:21:12;12.97;;;8.63;;
7334;SDS011;3708;42.632;23.378;2023-11-21T10:23:39;13.93;;;8.50;;
7334;SDS011;3708;42.632;23.378;2023-11-21T10:26:06;14.23;;;8.33;;
7334;SDS011;3708;42.632;23.378;2023-11-21T10:28:41;14.30;;;8.73;;
7334;SDS011;3708;42.632;23.378;2023-11-21T10:31:08;17.83;;;8.70;;
7334;SDS011;3708;42.632;23.378;2023-11-21T10:33:35;11.23;;;7.00;;
7334;SDS011;3708;42.632;23.378;2023-11-21T10:36:01;16.23;;;7.80;;
7334;SDS011;3708;42.632;23.378;2023-11-21T10:38:30;14.33;;;9.43;;
7334;SDS011;3708;42.632;23.378;2023-11-21T10:41:02;16.50;;;9.67;;
7334;SDS011;3708;42.632;23.378;2023-11-21T10:43:32;18.43;;;9.43;;
7334;SDS011;3708;42.632;23.378;2023-11-21T10:45:59;15.37;;;8.63;;
7334;SDS011;3708;42.632;23.378;2023-11-21T10:48:26;17.40;;;7.30;;
7334;SDS011;3708;42.632;23.378;2023-11-21T10:50:52;13.70;;;7.30;;
7334;SDS011;3708;42.632;23.378;2023-11-21T10:53:21;15.97;;;8.03;;
7334;SDS011;3708;42.632;23.378;2023-11-21T10:55:50;15.90;;;10.10;;
7334;SDS011;3708;42.632;23.378;2023-11-21T10:58:27;16.87;;;10.93;;
7334;SDS011;3708;42.632;23.378;2023-11-21T11:00:54;22.17;;;11.40;;
7334;SDS011;3708;42.632;23.378;2023-11-21T11:03:22;19.77;;;11.17;;
7334;SDS011;3708;42.632;23.378;2023-11-21T11:05:55;16.20;;;10.53;;
7334;SDS011;3708;42.632;23.378;2023-11-21T11:08:22;22.07;;;12.23;;
7334;SDS011;3708;42.632;23.378;2023-11-21T11:10:53;19.40;;;11.80;;
7334;SDS011;3708;42.632;23.378;2023-11-21T11:13:20;25.07;;;12.43;;
7334;SDS011;3708;42.632;23.378;2023-11-21T11:15:48;19.90;;;12.33;;
7334;SDS011;3708;42.632;23.378;2023-11-21T11:18:15;23.57;;;11.53;;
7334;SDS011;3708;42.632;23.378;2023-11-21T11:20:43;23.40;;;10.97;;
7334;SDS011;3708;42.632;23.378;2023-11-21T11:26:12;18.93;;;11.10;;
7334;SDS011;3708;42.632;23.378;2023-11-21T11:28:55;21.50;;;11.77;;
7334;SDS011;3708;42.632;23.378;2023-11-21T11:31:35;18.50;;;11.27;;
7334;SDS011;3708;42.632;23.378;2023-11-21T11:34:10;21.47;;;11.30;;
7334;SDS011;3708;42.632;23.378;2023-11-21T11:36:47;24.53;;;11.70;;
7334;SDS011;3708;42.632;23.378;2023-11-21T11:42:03;17.53;;;10.40;;
7334;SDS011;3708;42.632;23.378;2023-11-21T11:44:47;22.07;;;10.80;;
7334;SDS011;3708;42.632;23.378;2023-11-21T11:47:22;16.40;;;10.17;;
7334;SDS011;3708;42.632;23.378;2023-11-21T11:50:03;17.10;;;9.77;;
7334;SDS011;3708;42.632;23.378;2023-11-21T11:52:34;16.67;;;10.00;;
7334;SDS011;3708;42.632;23.378;2023-11-21T11:55:02;24.10;;;10.67;;
7334;SDS011;3708;42.632;23.378;2023-11-21T11:57:31;18.50;;;10.67;;
7334;SDS011;3708;42.632;23.378;2023-11-21T12:00:09;17.13;;;11.17;;
7334;SDS011;3708;42.632;23.378;2023-11-21T12:02:41;21.63;;;11.57;;
7334;SDS011;3708;42.632;23.378;2023-11-21T12:05:09;22.27;;;12.03;;
7334;SDS011;3708;42.632;23.378;2023-11-21T12:07:44;21.07;;;12.07;;
7334;SDS011;3708;42.632;23.378;2023-11-21T12:10:13;17.40;;;11.83;;
7334;SDS011;3708;42.632;23.378;2023-11-21T12:12:45;19.97;;;11.43;;
7334;SDS011;3708;42.632;23.378;2023-11-21T12:15:12;22.20;;;11.20;;
7334;SDS011;3708;42.632;23.378;2023-11-21T12:17:41;24.13;;;12.37;;
7334;SDS011;3708;42.632;23.378;2023-11-21T12:20:09;22.50;;;12.47;;
7334;SDS011;3708;42.632;23.378;2023-11-21T12:22:43;20.17;;;11.70;;
7334;SDS011;3708;42.632;23.378;2023-11-21T12:25:14;19.30;;;11.23;;
7334;SDS011;3708;42.632;23.378;2023-11-21T12:27:45;15.97;;;11.30;;
7334;SDS011;3708;42.632;23.378;2023-11-21T12:30:14;16.67;;;11.90;;
7334;SDS011;3708;42.632;23.378;2023-11-21T12:32:42;18.63;;;12.40;;
7334;SDS011;3708;42.632;23.378;2023-11-21T12:35:11;21.13;;;12.67;;
7334;SDS011;3708;42.632;23.378;2023-11-21T12:37:39;20.57;;;14.67;;
7334;SDS011;3708;42.632;23.378;2023-11-21T12:40:08;21.50;;;13.90;;
7334;SDS011;3708;42.632;23.378;2023-11-21T12:42:37;26.47;;;16.27;;
7334;SDS011;3708;42.632;23.378;2023-11-21T12:45:12;27.77;;;14.73;;
7334;SDS011;3708;42.632;23.378;2023-11-21T12:47:46;24.73;;;14.97;;
7334;SDS011;3708;42.632;23.378;2023-11-21T12:50:14;24.83;;;15.30;;
7334;SDS011;3708;42.632;23.378;2023-11-21T12:52:41;32.63;;;15.90;;
7334;SDS011;3708;42.632;23.378;2023-11-21T12:55:13;27.47;;;15.33;;
7334;SDS011;3708;42.632;23.378;2023-11-21T12:57:42;29.07;;;17.80;;
7334;SDS011;3708;42.632;23.378;2023-11-21T13:00:12;22.97;;;16.50;;
7334;SDS011;3708;42.632;23.378;2023-11-21T13:02:52;27.00;;;17.00;;
7334;SDS011;3708;42.632;23.378;2023-11-21T13:05:26;35.10;;;16.23;;
7334;SDS011;3708;42.632;23.378;2023-11-21T13:07:54;24.60;;;16.80;;
7334;SDS011;3708;42.632;23.378;2023-11-21T13:10:23;22.27;;;15.33;;
7334;SDS011;3708;42.632;23.378;2023-11-21T13:12:54;29.93;;;16.63;;
7334;SDS011;3708;42.632;23.378;2023-11-21T13:15:24;28.40;;;16.67;;
7334;SDS011;3708;42.632;23.378;2023-11-21T13:17:52;27.00;;;16.20;;
7334;SDS011;3708;42.632;23.378;2023-11-21T13:20:21;30.13;;;17.83;;
7334;SDS011;3708;42.632;23.378;2023-11-21T13:22:49;31.70;;;18.97;;
7334;SDS011;3708;42.632;23.378;2023-11-21T13:25:20;30.70;;;18.77;;
7334;SDS011;3708;42.632;23.378;2023-11-21T13:27:47;31.33;;;18.23;;
7334;SDS011;3708;42.632;23.378;2023-11-21T13:30:15;28.90;;;18.00;;
7334;SDS011;3708;42.632;23.378;2023-11-21T13:32:44;27.63;;;17.47;;
7334;SDS011;3708;42.632;23.378;2023-11-21T13:35:12;30.37;;;18.30;;
7334;SDS011;3708;42.632;23.378;2023-11-21T13:37:49;25.73;;;16.90;;
7334;SDS011;3708;42.632;23.378;2023-11-21T13:40:21;29.60;;;18.27;;
7334;SDS011;3708;42.632;23.378;2023-11-21T13:42:51;32.13;;;20.63;;
7334;SDS011;3708;42.632;23.378;2023-11-21T13:45:22;27.63;;;19.33;;
7334;SDS011;3708;42.632;23.378;2023-11-21T13:47:51;27.57;;;17.60;;
7334;SDS011;3708;42.632;23.378;2023-11-21T13:50:22;32.03;;;19.17;;
7334;SDS011;3708;42.632;23.378;2023-11-21T13:52:54;31.50;;;16.97;;
7334;SDS011;3708;42.632;23.378;2023-11-21T13:55:21;27.93;;;18.57;;
7334;SDS011;3708;42.632;23.378;2023-11-21T13:57:50;40.50;;;19.30;;
7334;SDS011;3708;42.632;23.378;2023-11-21T14:00:18;32.33;;;18.67;;
7334;SDS011;3708;42.632;23.378;2023-11-21T14:03:10;32.70;;;17.90;;
7334;SDS011;3708;42.632;23.378;2023-11-21T14:05:45;31.03;;;18.50;;
7334;SDS011;3708;42.632;23.378;2023-11-21T14:08:16;32.17;;;17.80;;
7334;SDS011;3708;42.632;23.378;2023-11-21T14:10:45;35.80;;;19.70;;
7334;SDS011;3708;42.632;23.378;2023-11-21T14:13:16;45.20;;;20.23;;
7334;SDS011;3708;42.632;23.378;2023-11-21T14:15:43;29.07;;;18.27;;
7334;SDS011;3708;42.632;23.378;2023-11-21T14:18:13;38.93;;;20.10;;
7334;SDS011;3708;42.632;23.378;2023-11-21T14:20:42;32.13;;;19.10;;
7334;SDS011;3708;42.632;23.378;2023-11-21T14:23:09;32.87;;;19.87;;
7334;SDS011;3708;42.632;23.378;2023-11-21T14:25:37;32.77;;;20.93;;
7334;SDS011;3708;42.632;23.378;2023-11-21T14:28:05;41.53;;;23.47;;
7334;SDS011;3708;42.632;23.378;2023-11-21T14:30:32;39.23;;;22.47;;
7334;SDS011;3708;42.632;23.378;2023-11-21T14:33:01;46.50;;;23.67;;
7334;SDS011;3708;42.632;23.378;2023-11-21T14:35:29;31.07;;;20.97;;
7334;SDS011;3708;42.632;23.378;2023-11-21T14:37:57;31.63;;;20.40;;
7334;SDS011;3708;42.632;23.378;2023-11-21T14:40:25;39.70;;;20.47;;
7334;SDS011;3708;42.632;23.378;2023-11-21T14:42:58;32.60;;;20.57;;
7334;SDS011;3708;42.632;23.378;2023-11-21T14:45:26;36.90;;;21.50;;
7334;SDS011;3708;42.632;23.378;2023-11-21T14:47:54;40.40;;;21.53;;
7334;SDS011;3708;42.632;23.378;2023-11-21T14:50:32;37.67;;;20.63;;
7334;SDS011;3708;42.632;23.378;2023-11-21T14:53:10;30.73;;;20.10;;
7334;SDS011;3708;42.632;23.378;2023-11-21T14:55:37;35.37;;;19.10;;
7334;SDS011;3708;42.632;23.378;2023-11-21T14:58:18;38.07;;;19.13;;
7334;SDS011;3708;42.632;23.378;2023-11-21T15:00:52;34.23;;;19.50;;